sensor_id;sensor_type;location;lat;lon;timestamp;pressure;altitude;pressure_sealevel;temperature;humidity
79067;BME280;68470;50.224;14.348;2023-04-12T00:01:50;99295.19;;;-0.30;93.50
79067;BME280;68470;50.224;14.348;2023-04-12T00:04:16;99276.50;;;-0.18;93.40
79067;BME280;68470;50.224;14.348;2023-04-12T00:06:43;99270.91;;;0.31;91.83
79067;BME280;68470;50.224;14.348;2023-04-12T00:09:13;99272.22;;;0.42;91.41
79067;BME280;68470;50.224;14.348;2023-04-12T00:11:42;99250.06;;;0.18;90.98
79067;BME280;68470;50.224;14.348;2023-04-12T00:14:08;99259.72;;;-0.07;91.93
79067;BME280;68470;50.224;14.348;2023-04-12T00:16:34;99255.50;;;-0.51;92.26
79067;BME280;68470;50.224;14.348;2023-04-12T00:19:01;99260.03;;;-0.58;92.59
79067;BME280;68470;50.224;14.348;2023-04-12T00:21:28;99239.94;;;-0.77;92.27
79067;BME280;68470;50.224;14.348;2023-04-12T00:23:54;99255.34;;;-0.99;92.90
79067;BME280;68470;50.224;14.348;2023-04-12T00:26:21;99223.50;;;-0.75;94.42
79067;BME280;68470;50.224;14.348;2023-04-12T00:28:47;99242.44;;;-0.75;94.35
79067;BME280;68470;50.224;14.348;2023-04-12T00:31:13;99219.91;;;-1.10;93.51
79067;BME280;68470;50.224;14.348;2023-04-12T00:33:38;99216.13;;;-1.16;94.04
79067;BME280;68470;50.224;14.348;2023-04-12T00:36:05;99217.47;;;-0.77;95.14
79067;BME280;68470;50.224;14.348;2023-04-12T00:38:30;99219.72;;;-0.53;94.75
79067;BME280;68470;50.224;14.348;2023-04-12T00:40:56;99202.94;;;-0.42;94.89
79067;BME280;68470;50.224;14.348;2023-04-12T00:43:22;99197.31;;;-0.75;93.85
79067;BME280;68470;50.224;14.348;2023-04-12T00:45:53;99207.19;;;-0.88;94.08
79067;BME280;68470;50.224;14.348;2023-04-12T00:48:22;99195.56;;;-1.17;93.57
79067;BME280;68470;50.224;14.348;2023-04-12T00:50:49;99212.78;;;-1.39;93.20
79067;BME280;68470;50.224;14.348;2023-04-12T00:53:17;99216.19;;;-1.31;93.59
79067;BME280;68470;50.224;14.348;2023-04-12T00:55:44;99211.69;;;-1.24;94.27
79067;BME280;68470;50.224;14.348;2023-04-12T00:58:10;99211.16;;;-1.12;93.09
79067;BME280;68470;50.224;14.348;2023-04-12T01:00:36;99197.84;;;-1.35;93.11
79067;BME280;68470;50.224;14.348;2023-04-12T01:03:03;99204.38;;;-1.51;94.37
79067;BME280;68470;50.224;14.348;2023-04-12T01:05:35;99207.31;;;-1.46;93.57
79067;BME280;68470;50.224;14.348;2023-04-12T01:11:48;99194.13;;;-1.13;95.55
79067;BME280;68470;50.224;14.348;2023-04-12T01:14:14;99184.69;;;-0.96;96.02
79067;BME280;68470;50.224;14.348;2023-04-12T01:16:46;99191.56;;;-0.65;95.81
79067;BME280;68470;50.224;14.348;2023-04-12T01:25:02;99182.75;;;0.02;94.12
79067;BME280;68470;50.224;14.348;2023-04-12T01:27:45;99170.28;;;0.14;92.95
79067;BME280;68470;50.224;14.348;2023-04-12T01:30:15;99168.78;;;-0.02;92.87
79067;BME280;68470;50.224;14.348;2023-04-12T01:32:44;99163.72;;;-0.18;93.20
79067;BME280;68470;50.224;14.348;2023-04-12T01:35:12;99148.63;;;-0.47;93.79
79067;BME280;68470;50.224;14.348;2023-04-12T01:37:40;99163.22;;;-0.35;94.24
79067;BME280;68470;50.224;14.348;2023-04-12T01:40:07;99169.84;;;-0.44;94.03
79067;BME280;68470;50.224;14.348;2023-04-12T01:42:36;99178.13;;;-0.52;94.63
79067;BME280;68470;50.224;14.348;2023-04-12T01:45:02;99170.47;;;-0.48;94.92
79067;BME280;68470;50.224;14.348;2023-04-12T01:47:29;99174.38;;;-0.51;94.49
79067;BME280;68470;50.224;14.348;2023-04-12T01:52:35;99154.59;;;-0.58;94.83
79067;BME280;68470;50.224;14.348;2023-04-12T01:55:05;99135.00;;;-0.67;94.89
79067;BME280;68470;50.224;14.348;2023-04-12T01:57:32;99144.69;;;-0.79;94.00
79067;BME280;68470;50.224;14.348;2023-04-12T02:00:01;99124.94;;;-1.14;93.95
79067;BME280;68470;50.224;14.348;2023-04-12T02:02:27;99142.72;;;-1.19;94.26
79067;BME280;68470;50.224;14.348;2023-04-12T02:04:53;99139.22;;;-0.85;94.91
79067;BME280;68470;50.224;14.348;2023-04-12T02:07:20;99140.53;;;-0.81;95.42
79067;BME280;68470;50.224;14.348;2023-04-12T02:09:46;99152.84;;;-0.72;95.19
79067;BME280;68470;50.224;14.348;2023-04-12T02:12:12;99148.44;;;-0.39;95.24
79067;BME280;68470;50.224;14.348;2023-04-12T02:14:38;99135.75;;;-0.45;94.93
79067;BME280;68470;50.224;14.348;2023-04-12T02:17:04;99137.88;;;-0.34;94.78
79067;BME280;68470;50.224;14.348;2023-04-12T02:19:29;99123.69;;;-0.36;94.13
79067;BME280;68470;50.224;14.348;2023-04-12T02:21:56;99128.81;;;-0.54;94.23
79067;BME280;68470;50.224;14.348;2023-04-12T02:24:22;99114.38;;;-0.74;94.95
79067;BME280;68470;50.224;14.348;2023-04-12T02:26:48;99126.38;;;-0.83;94.55
79067;BME280;68470;50.224;14.348;2023-04-12T02:29:16;99128.75;;;-1.30;94.17
79067;BME280;68470;50.224;14.348;2023-04-12T02:31:42;99129.28;;;-1.41;94.21
79067;BME280;68470;50.224;14.348;2023-04-12T02:34:08;99116.09;;;-1.29;95.04
79067;BME280;68470;50.224;14.348;2023-04-12T02:36:34;99111.16;;;-1.19;95.01
79067;BME280;68470;50.224;14.348;2023-04-12T02:39:02;99112.81;;;-1.18;94.69
79067;BME280;68470;50.224;14.348;2023-04-12T02:41:28;99113.28;;;-1.14;95.57
79067;BME280;68470;50.224;14.348;2023-04-12T02:43:54;99103.25;;;-1.21;95.21
79067;BME280;68470;50.224;14.348;2023-04-12T02:46:23;99109.28;;;-1.18;96.27
79067;BME280;68470;50.224;14.348;2023-04-12T02:48:49;99097.13;;;-1.08;96.30
79067;BME280;68470;50.224;14.348;2023-04-12T02:51:16;99111.59;;;-1.43;94.83
79067;BME280;68470;50.224;14.348;2023-04-12T02:53:42;99105.44;;;-1.59;95.08
79067;BME280;68470;50.224;14.348;2023-04-12T02:56:08;99113.59;;;-1.52;95.44
79067;BME280;68470;50.224;14.348;2023-04-12T02:58:35;99114.91;;;-1.69;94.67
79067;BME280;68470;50.224;14.348;2023-04-12T03:01:02;99112.53;;;-1.79;95.02
79067;BME280;68470;50.224;14.348;2023-04-12T03:03:35;99116.66;;;-1.62;95.48
79067;BME280;68470;50.224;14.348;2023-04-12T03:06:01;99113.28;;;-1.85;96.25
79067;BME280;68470;50.224;14.348;2023-04-12T03:08:27;99117.94;;;-2.00;95.63
79067;BME280;68470;50.224;14.348;2023-04-12T03:10:52;99091.56;;;-2.20;94.96
79067;BME280;68470;50.224;14.348;2023-04-12T03:13:18;99089.38;;;-2.31;96.39
79067;BME280;68470;50.224;14.348;2023-04-12T03:15:45;99111.69;;;-2.37;95.14
79067;BME280;68470;50.224;14.348;2023-04-12T03:18:11;99096.44;;;-2.30;95.39
79067;BME280;68470;50.224;14.348;2023-04-12T03:20:38;99086.06;;;-2.48;94.96
79067;BME280;68470;50.224;14.348;2023-04-12T03:23:06;99091.91;;;-2.44;94.91
79067;BME280;68470;50.224;14.348;2023-04-12T03:25:31;99089.78;;;-2.34;95.40
79067;BME280;68470;50.224;14.348;2023-04-12T03:27:57;99095.06;;;-2.40;95.80
79067;BME280;68470;50.224;14.348;2023-04-12T03:30:23;99093.09;;;-2.32;96.10
79067;BME280;68470;50.224;14.348;2023-04-12T03:32:49;99091.72;;;-2.06;96.47
79067;BME280;68470;50.224;14.348;2023-04-12T03:35:14;99085.03;;;-2.10;96.68
79067;BME280;68470;50.224;14.348;2023-04-12T03:37:41;99086.25;;;-2.34;96.15
79067;BME280;68470;50.224;14.348;2023-04-12T03:40:08;99090.78;;;-2.35;96.25
79067;BME280;68470;50.224;14.348;2023-04-12T03:42:34;99084.47;;;-2.42;94.78
79067;BME280;68470;50.224;14.348;2023-04-12T03:45:00;99071.94;;;-2.35;96.38
79067;BME280;68470;50.224;14.348;2023-04-12T03:47:26;99081.50;;;-1.90;96.69
79067;BME280;68470;50.224;14.348;2023-04-12T03:49:55;99081.84;;;-1.99;96.21
79067;BME280;68470;50.224;14.348;2023-04-12T03:52:21;99062.81;;;-2.34;95.67
79067;BME280;68470;50.224;14.348;2023-04-12T03:54:47;99073.50;;;-2.40;95.09
79067;BME280;68470;50.224;14.348;2023-04-12T03:57:13;99069.16;;;-2.56;94.53
79067;BME280;68470;50.224;14.348;2023-04-12T03:59:39;99065.28;;;-2.18;95.63
79067;BME280;68470;50.224;14.348;2023-04-12T04:02:04;99068.59;;;-1.94;96.98
79067;BME280;68470;50.224;14.348;2023-04-12T04:04:32;99063.13;;;-1.79;96.77
79067;BME280;68470;50.224;14.348;2023-04-12T04:06:58;99068.00;;;-1.68;96.67
79067;BME280;68470;50.224;14.348;2023-04-12T04:09:24;99057.53;;;-2.21;95.75
79067;BME280;68470;50.224;14.348;2023-04-12T04:11:49;99073.22;;;-2.31;95.56
79067;BME280;68470;50.224;14.348;2023-04-12T04:14:16;99064.34;;;-2.25;96.48
79067;BME280;68470;50.224;14.348;2023-04-12T04:16:41;99056.25;;;-2.46;96.20
79067;BME280;68470;50.224;14.348;2023-04-12T04:19:07;99062.63;;;-2.68;95.44
79067;BME280;68470;50.224;14.348;2023-04-12T04:21:33;99062.56;;;-2.54;95.44
79067;BME280;68470;50.224;14.348;2023-04-12T04:23:59;99064.97;;;-2.23;95.00
79067;BME280;68470;50.224;14.348;2023-04-12T04:26:26;99066.41;;;-2.27;95.78
79067;BME280;68470;50.224;14.348;2023-04-12T04:28:58;99065.38;;;-2.26;93.92
79067;BME280;68470;50.224;14.348;2023-04-12T04:31:28;99065.81;;;-2.22;93.32
79067;BME280;68470;50.224;14.348;2023-04-12T04:34:02;99069.09;;;-2.27;93.91
79067;BME280;68470;50.224;14.348;2023-04-12T04:36:32;99062.44;;;-2.31;94.66
79067;BME280;68470;50.224;14.348;2023-04-12T04:38:58;99075.72;;;-2.08;94.88
79067;BME280;68470;50.224;14.348;2023-04-12T04:41:24;99062.41;;;-1.88;95.16
79067;BME280;68470;50.224;14.348;2023-04-12T04:43:51;99056.00;;;-1.87;94.12
79067;BME280;68470;50.224;14.348;2023-04-12T04:46:19;99058.13;;;-1.83;95.08
79067;BME280;68470;50.224;14.348;2023-04-12T04:48:49;99073.09;;;-1.52;95.72
79067;BME280;68470;50.224;14.348;2023-04-12T04:51:16;99066.53;;;-1.43;95.71
79067;BME280;68470;50.224;14.348;2023-04-12T04:53:43;99068.66;;;-1.38;96.30
79067;BME280;68470;50.224;14.348;2023-04-12T04:56:09;99065.50;;;-1.14;96.54
79067;BME280;68470;50.224;14.348;2023-04-12T04:58:36;99067.31;;;-0.39;95.36
79067;BME280;68470;50.224;14.348;2023-04-12T05:01:02;99053.94;;;0.21;92.17
79067;BME280;68470;50.224;14.348;2023-04-12T05:03:28;99066.44;;;0.55;90.97
79067;BME280;68470;50.224;14.348;2023-04-12T05:05:54;99049.75;;;0.84;90.41
79067;BME280;68470;50.224;14.348;2023-04-12T05:08:23;99051.44;;;0.72;89.68
79067;BME280;68470;50.224;14.348;2023-04-12T05:10:54;99067.88;;;0.90;88.81
79067;BME280;68470;50.224;14.348;2023-04-12T05:13:20;99056.13;;;1.23;89.40
79067;BME280;68470;50.224;14.348;2023-04-12T05:15:47;99059.59;;;1.43;87.32
79067;BME280;68470;50.224;14.348;2023-04-12T05:18:13;99054.88;;;1.70;85.37
79067;BME280;68470;50.224;14.348;2023-04-12T05:20:39;99064.34;;;1.55;86.21
79067;BME280;68470;50.224;14.348;2023-04-12T05:23:05;99063.16;;;1.82;85.91
79067;BME280;68470;50.224;14.348;2023-04-12T05:25:31;99053.53;;;2.18;84.94
79067;BME280;68470;50.224;14.348;2023-04-12T05:27:57;99045.91;;;2.33;84.00
79067;BME280;68470;50.224;14.348;2023-04-12T05:30:23;99036.22;;;2.68;82.64
79067;BME280;68470;50.224;14.348;2023-04-12T05:32:49;99036.22;;;2.68;81.71
79067;BME280;68470;50.224;14.348;2023-04-12T05:35:15;99040.47;;;2.83;81.86
79067;BME280;68470;50.224;14.348;2023-04-12T05:37:41;99032.72;;;2.86;81.86
79067;BME280;68470;50.224;14.348;2023-04-12T05:40:07;99032.19;;;3.32;80.24
79067;BME280;68470;50.224;14.348;2023-04-12T05:42:34;99029.03;;;3.54;79.50
79067;BME280;68470;50.224;14.348;2023-04-12T05:45:04;99027.59;;;3.81;78.61
79067;BME280;68470;50.224;14.348;2023-04-12T05:47:30;99008.88;;;4.03;77.25
79067;BME280;68470;50.224;14.348;2023-04-12T05:49:56;99019.13;;;3.89;77.59
79067;BME280;68470;50.224;14.348;2023-04-12T05:52:22;99024.34;;;3.91;78.26
79067;BME280;68470;50.224;14.348;2023-04-12T05:54:48;99002.75;;;3.78;77.50
79067;BME280;68470;50.224;14.348;2023-04-12T05:57:14;99010.72;;;3.61;78.64
79067;BME280;68470;50.224;14.348;2023-04-12T05:59:40;99001.56;;;3.85;77.64
79067;BME280;68470;50.224;14.348;2023-04-12T06:02:06;99002.84;;;3.71;78.07
79067;BME280;68470;50.224;14.348;2023-04-12T06:04:34;98991.78;;;3.66;78.13
79067;BME280;68470;50.224;14.348;2023-04-12T06:07:00;98984.50;;;3.78;77.89
79067;BME280;68470;50.224;14.348;2023-04-12T06:09:29;98986.41;;;4.31;76.58
79067;BME280;68470;50.224;14.348;2023-04-12T06:11:54;98988.19;;;4.26;76.24
79067;BME280;68470;50.224;14.348;2023-04-12T06:14:21;98977.91;;;4.39;75.69
79067;BME280;68470;50.224;14.348;2023-04-12T06:16:47;98972.69;;;4.84;74.22
79067;BME280;68470;50.224;14.348;2023-04-12T06:19:13;98973.66;;;5.42;72.21
79067;BME280;68470;50.224;14.348;2023-04-12T06:21:39;98989.41;;;5.00;73.43
79067;BME280;68470;50.224;14.348;2023-04-12T06:24:05;98974.34;;;4.97;72.77
79067;BME280;68470;50.224;14.348;2023-04-12T06:26:32;98975.75;;;5.52;71.45
79067;BME280;68470;50.224;14.348;2023-04-12T06:28:57;98964.38;;;6.28;68.37
79067;BME280;68470;50.224;14.348;2023-04-12T06:31:23;98958.38;;;6.15;69.01
79067;BME280;68470;50.224;14.348;2023-04-12T06:33:49;98969.97;;;5.77;68.95
79067;BME280;68470;50.224;14.348;2023-04-12T06:36:16;98947.38;;;5.81;68.97
79067;BME280;68470;50.224;14.348;2023-04-12T06:38:42;98929.09;;;6.44;67.20
79067;BME280;68470;50.224;14.348;2023-04-12T06:41:08;98938.38;;;5.81;68.44
79067;BME280;68470;50.224;14.348;2023-04-12T06:43:34;98927.25;;;6.16;68.58
79067;BME280;68470;50.224;14.348;2023-04-12T06:46:00;98939.34;;;6.37;67.27
79067;BME280;68470;50.224;14.348;2023-04-12T06:48:28;98930.25;;;6.31;67.01
79067;BME280;68470;50.224;14.348;2023-04-12T06:50:54;98928.72;;;6.74;65.49
79067;BME280;68470;50.224;14.348;2023-04-12T06:53:20;98931.28;;;7.02;64.28
79067;BME280;68470;50.224;14.348;2023-04-12T06:55:46;98913.63;;;8.12;60.86
79067;BME280;68470;50.224;14.348;2023-04-12T06:58:12;98923.44;;;8.08;60.67
79067;BME280;68470;50.224;14.348;2023-04-12T07:00:38;98902.22;;;7.67;60.56
79067;BME280;68470;50.224;14.348;2023-04-12T07:03:04;98900.59;;;7.22;62.51
79067;BME280;68470;50.224;14.348;2023-04-12T07:05:30;98908.19;;;6.93;62.69
79067;BME280;68470;50.224;14.348;2023-04-12T07:07:55;98891.19;;;7.35;61.76
79067;BME280;68470;50.224;14.348;2023-04-12T07:10:21;98890.28;;;7.78;61.06
79067;BME280;68470;50.224;14.348;2023-04-12T07:12:47;98887.72;;;7.71;60.92
79067;BME280;68470;50.224;14.348;2023-04-12T07:15:14;98881.88;;;7.36;61.11
79067;BME280;68470;50.224;14.348;2023-04-12T07:17:39;98886.72;;;6.85;63.61
79067;BME280;68470;50.224;14.348;2023-04-12T07:20:05;98881.53;;;7.27;62.97
79067;BME280;68470;50.224;14.348;2023-04-12T07:22:31;98888.03;;;8.34;59.77
79067;BME280;68470;50.224;14.348;2023-04-12T07:24:57;98883.88;;;8.31;59.12
79067;BME280;68470;50.224;14.348;2023-04-12T07:27:23;98876.19;;;8.70;58.13
79067;BME280;68470;50.224;14.348;2023-04-12T07:29:50;98879.38;;;8.52;58.48
79067;BME280;68470;50.224;14.348;2023-04-12T07:32:17;98870.22;;;8.73;58.23
79067;BME280;68470;50.224;14.348;2023-04-12T07:34:43;98856.19;;;8.33;57.81
79067;BME280;68470;50.224;14.348;2023-04-12T07:37:09;98857.22;;;9.21;56.39
79067;BME280;68470;50.224;14.348;2023-04-12T07:39:35;98853.66;;;8.58;56.94
79067;BME280;68470;50.224;14.348;2023-04-12T07:42:01;98865.63;;;10.48;53.09
79067;BME280;68470;50.224;14.348;2023-04-12T07:44:27;98862.91;;;10.28;52.04
79067;BME280;68470;50.224;14.348;2023-04-12T07:46:53;98858.72;;;9.64;54.31
79067;BME280;68470;50.224;14.348;2023-04-12T07:49:19;98854.31;;;9.74;54.59
79067;BME280;68470;50.224;14.348;2023-04-12T07:51:44;98852.03;;;10.98;50.96
79067;BME280;68470;50.224;14.348;2023-04-12T07:54:10;98829.59;;;12.08;47.22
79067;BME280;68470;50.224;14.348;2023-04-12T07:56:37;98820.03;;;11.56;49.71
79067;BME280;68470;50.224;14.348;2023-04-12T07:59:03;98831.41;;;12.52;45.93
79067;BME280;68470;50.224;14.348;2023-04-12T08:01:28;98831.75;;;12.16;47.39
79067;BME280;68470;50.224;14.348;2023-04-12T08:03:55;98828.94;;;11.87;48.62
79067;BME280;68470;50.224;14.348;2023-04-12T08:06:20;98832.63;;;12.41;46.94
79067;BME280;68470;50.224;14.348;2023-04-12T08:08:46;98827.47;;;11.11;48.43
79067;BME280;68470;50.224;14.348;2023-04-12T08:11:12;98819.31;;;11.85;46.87
79067;BME280;68470;50.224;14.348;2023-04-12T08:13:38;98819.47;;;12.85;45.21
79067;BME280;68470;50.224;14.348;2023-04-12T08:16:04;98817.31;;;13.25;45.63
79067;BME280;68470;50.224;14.348;2023-04-12T08:18:31;98815.97;;;12.51;46.00
79067;BME280;68470;50.224;14.348;2023-04-12T08:20:57;98803.38;;;12.40;46.34
79067;BME280;68470;50.224;14.348;2023-04-12T08:23:24;98813.50;;;12.73;46.09
79067;BME280;68470;50.224;14.348;2023-04-12T08:25:49;98805.31;;;12.39;45.52
79067;BME280;68470;50.224;14.348;2023-04-12T08:28:16;98784.75;;;14.43;42.47
79067;BME280;68470;50.224;14.348;2023-04-12T08:30:42;98790.16;;;13.08;44.26
79067;BME280;68470;50.224;14.348;2023-04-12T08:33:08;98774.03;;;13.91;42.57
79067;BME280;68470;50.224;14.348;2023-04-12T08:35:33;98782.84;;;13.93;42.28
79067;BME280;68470;50.224;14.348;2023-04-12T08:37:59;98763.09;;;12.39;44.65
79067;BME280;68470;50.224;14.348;2023-04-12T08:40:31;98771.16;;;12.06;45.38
79067;BME280;68470;50.224;14.348;2023-04-12T08:43:00;98755.41;;;13.26;43.04
79067;BME280;68470;50.224;14.348;2023-04-12T08:45:28;98778.69;;;12.24;44.72
79067;BME280;68470;50.224;14.348;2023-04-12T08:47:54;98758.59;;;13.71;42.58
79067;BME280;68470;50.224;14.348;2023-04-12T08:50:20;98776.81;;;13.15;44.52
79067;BME280;68470;50.224;14.348;2023-04-12T08:52:47;98757.09;;;13.03;41.57
79067;BME280;68470;50.224;14.348;2023-04-12T08:55:14;98765.28;;;14.02;39.64
79067;BME280;68470;50.224;14.348;2023-04-12T08:57:40;98756.69;;;13.52;40.76
79067;BME280;68470;50.224;14.348;2023-04-12T09:00:07;98748.16;;;12.87;41.22
79067;BME280;68470;50.224;14.348;2023-04-12T09:02:37;98742.53;;;12.98;41.03
79067;BME280;68470;50.224;14.348;2023-04-12T09:05:03;98745.81;;;13.00;41.93
79067;BME280;68470;50.224;14.348;2023-04-12T09:07:30;98739.66;;;12.84;41.67
79067;BME280;68470;50.224;14.348;2023-04-12T09:09:57;98727.41;;;12.71;42.44
79067;BME280;68470;50.224;14.348;2023-04-12T09:12:23;98712.06;;;13.03;40.17
79067;BME280;68470;50.224;14.348;2023-04-12T09:15:13;98712.88;;;13.03;40.89
79067;BME280;68470;50.224;14.348;2023-04-12T09:17:41;98708.38;;;12.70;40.06
79067;BME280;68470;50.224;14.348;2023-04-12T09:22:42;98677.06;;;12.98;36.40
79067;BME280;68470;50.224;14.348;2023-04-12T09:25:10;98662.72;;;13.34;35.88
79067;BME280;68470;50.224;14.348;2023-04-12T09:27:51;98668.00;;;12.92;36.57
79067;BME280;68470;50.224;14.348;2023-04-12T09:30:18;98665.34;;;13.25;35.96
79067;BME280;68470;50.224;14.348;2023-04-12T09:32:44;98666.09;;;13.12;35.47
79067;BME280;68470;50.224;14.348;2023-04-12T09:35:10;98661.97;;;13.47;34.75
79067;BME280;68470;50.224;14.348;2023-04-12T09:37:36;98653.75;;;13.23;36.38
79067;BME280;68470;50.224;14.348;2023-04-12T09:40:06;98643.16;;;13.76;35.55
79067;BME280;68470;50.224;14.348;2023-04-12T09:42:34;98650.13;;;13.74;35.21
79067;BME280;68470;50.224;14.348;2023-04-12T09:45:18;98655.25;;;13.67;35.95
79067;BME280;68470;50.224;14.348;2023-04-12T09:47:45;98646.38;;;13.00;35.40
79067;BME280;68470;50.224;14.348;2023-04-12T09:50:19;98646.66;;;12.79;36.18
79067;BME280;68470;50.224;14.348;2023-04-12T09:52:45;98644.34;;;12.86;36.26
79067;BME280;68470;50.224;14.348;2023-04-12T09:55:12;98635.59;;;13.17;35.43
79067;BME280;68470;50.224;14.348;2023-04-12T09:57:43;98629.06;;;13.78;34.91
79067;BME280;68470;50.224;14.348;2023-04-12T10:00:10;98623.50;;;14.88;34.13
79067;BME280;68470;50.224;14.348;2023-04-12T10:02:45;98631.28;;;14.50;33.02
79067;BME280;68470;50.224;14.348;2023-04-12T10:05:14;98608.69;;;14.29;34.29
79067;BME280;68470;50.224;14.348;2023-04-12T10:07:40;98608.97;;;13.86;33.13
79067;BME280;68470;50.224;14.348;2023-04-12T10:10:09;98610.94;;;13.85;32.56
79067;BME280;68470;50.224;14.348;2023-04-12T10:12:38;98603.06;;;14.20;33.06
79067;BME280;68470;50.224;14.348;2023-04-12T10:15:07;98600.97;;;13.71;33.02
79067;BME280;68470;50.224;14.348;2023-04-12T10:17:42;98578.88;;;13.98;33.77
79067;BME280;68470;50.224;14.348;2023-04-12T10:20:10;98580.03;;;14.74;31.70
79067;BME280;68470;50.224;14.348;2023-04-12T10:22:44;98573.72;;;14.96;31.35
79067;BME280;68470;50.224;14.348;2023-04-12T10:25:12;98567.78;;;15.34;30.14
79067;BME280;68470;50.224;14.348;2023-04-12T10:27:40;98578.88;;;15.34;29.15
79067;BME280;68470;50.224;14.348;2023-04-12T10:30:29;98581.44;;;14.86;29.30
79067;BME280;68470;50.224;14.348;2023-04-12T10:35:29;98559.41;;;15.03;29.69
79067;BME280;68470;50.224;14.348;2023-04-12T10:40:22;98564.63;;;15.04;30.40
79067;BME280;68470;50.224;14.348;2023-04-12T10:45:43;98546.66;;;15.78;29.16
79067;BME280;68470;50.224;14.348;2023-04-12T10:48:35;98541.34;;;15.59;29.86
79067;BME280;68470;50.224;14.348;2023-04-12T10:51:18;98535.34;;;14.90;29.94
79067;BME280;68470;50.224;14.348;2023-04-12T10:53:53;98526.63;;;15.89;28.42
79067;BME280;68470;50.224;14.348;2023-04-12T10:56:40;98521.28;;;16.67;26.92
79067;BME280;68470;50.224;14.348;2023-04-12T10:59:10;98519.72;;;15.16;28.31
79067;BME280;68470;50.224;14.348;2023-04-12T11:01:37;98517.78;;;15.48;28.63
79067;BME280;68470;50.224;14.348;2023-04-12T11:04:21;98501.75;;;15.76;28.71
79067;BME280;68470;50.224;14.348;2023-04-12T11:11:48;98489.19;;;15.39;30.10
79067;BME280;68470;50.224;14.348;2023-04-12T11:14:15;98475.41;;;16.04;29.68
79067;BME280;68470;50.224;14.348;2023-04-12T11:22:09;98460.53;;;15.91;28.64
79067;BME280;68470;50.224;14.348;2023-04-12T11:24:40;98478.59;;;16.63;28.95
79067;BME280;68470;50.224;14.348;2023-04-12T11:27:07;98478.72;;;16.32;30.32
79067;BME280;68470;50.224;14.348;2023-04-12T11:29:34;98465.66;;;16.93;29.53
79067;BME280;68470;50.224;14.348;2023-04-12T11:32:05;98465.59;;;15.50;31.51
79067;BME280;68470;50.224;14.348;2023-04-12T11:34:32;98453.94;;;15.08;31.90
79067;BME280;68470;50.224;14.348;2023-04-12T11:36:58;98446.28;;;15.45;31.41
79067;BME280;68470;50.224;14.348;2023-04-12T11:39:25;98432.19;;;16.72;28.96
79067;BME280;68470;50.224;14.348;2023-04-12T11:41:53;98453.53;;;16.03;31.30
79067;BME280;68470;50.224;14.348;2023-04-12T11:44:19;98425.44;;;16.99;28.25
79067;BME280;68470;50.224;14.348;2023-04-12T11:46:46;98424.53;;;18.43;26.29
79067;BME280;68470;50.224;14.348;2023-04-12T11:49:17;98423.78;;;17.07;26.82
79067;BME280;68470;50.224;14.348;2023-04-12T11:51:43;98417.03;;;17.17;28.58
79067;BME280;68470;50.224;14.348;2023-04-12T11:54:11;98414.94;;;18.73;25.54
79067;BME280;68470;50.224;14.348;2023-04-12T11:56:37;98414.38;;;16.82;28.15
79067;BME280;68470;50.224;14.348;2023-04-12T11:59:04;98410.91;;;16.76;28.49
79067;BME280;68470;50.224;14.348;2023-04-12T12:01:29;98396.00;;;16.98;28.86
79067;BME280;68470;50.224;14.348;2023-04-12T12:04:00;98408.47;;;16.58;28.83
79067;BME280;68470;50.224;14.348;2023-04-12T12:06:26;98407.97;;;16.55;28.04
79067;BME280;68470;50.224;14.348;2023-04-12T12:08:52;98388.69;;;17.61;26.67
79067;BME280;68470;50.224;14.348;2023-04-12T12:11:19;98389.59;;;17.15;28.45
79067;BME280;68470;50.224;14.348;2023-04-12T12:13:53;98371.19;;;16.84;29.53
79067;BME280;68470;50.224;14.348;2023-04-12T12:16:27;98387.53;;;16.86;29.18
79067;BME280;68470;50.224;14.348;2023-04-12T12:18:53;98379.91;;;16.31;28.57
79067;BME280;68470;50.224;14.348;2023-04-12T12:21:19;98381.25;;;18.03;26.46
79067;BME280;68470;50.224;14.348;2023-04-12T12:23:47;98374.41;;;17.42;27.13
79067;BME280;68470;50.224;14.348;2023-04-12T12:26:24;98371.91;;;17.49;26.21
79067;BME280;68470;50.224;14.348;2023-04-12T12:28:54;98348.34;;;16.44;29.18
79067;BME280;68470;50.224;14.348;2023-04-12T12:31:25;98371.38;;;15.67;30.82
79067;BME280;68470;50.224;14.348;2023-04-12T12:33:56;98364.44;;;15.56;29.41
79067;BME280;68470;50.224;14.348;2023-04-12T12:36:32;98349.91;;;14.62;30.35
79067;BME280;68470;50.224;14.348;2023-04-12T12:39:08;98346.63;;;15.31;30.14
79067;BME280;68470;50.224;14.348;2023-04-12T12:41:35;98351.66;;;14.89;30.43
79067;BME280;68470;50.224;14.348;2023-04-12T12:44:02;98338.00;;;14.39;31.28
79067;BME280;68470;50.224;14.348;2023-04-12T12:46:28;98345.19;;;14.63;30.89
79067;BME280;68470;50.224;14.348;2023-04-12T12:48:54;98329.16;;;14.82;31.40
79067;BME280;68470;50.224;14.348;2023-04-12T12:51:20;98325.91;;;15.37;30.75
79067;BME280;68470;50.224;14.348;2023-04-12T12:53:46;98341.13;;;15.00;31.10
79067;BME280;68470;50.224;14.348;2023-04-12T12:56:12;98324.22;;;15.67;30.94
79067;BME280;68470;50.224;14.348;2023-04-12T12:58:40;98317.63;;;15.54;30.33
79067;BME280;68470;50.224;14.348;2023-04-12T13:01:06;98318.78;;;14.96;31.94
79067;BME280;68470;50.224;14.348;2023-04-12T13:03:32;98307.22;;;14.63;32.94
79067;BME280;68470;50.224;14.348;2023-04-12T13:05:58;98302.47;;;14.33;34.25
79067;BME280;68470;50.224;14.348;2023-04-12T13:08:25;98303.03;;;14.43;33.55
79067;BME280;68470;50.224;14.348;2023-04-12T13:10:51;98291.41;;;13.88;34.08
79067;BME280;68470;50.224;14.348;2023-04-12T13:13:18;98292.41;;;13.92;35.11
79067;BME280;68470;50.224;14.348;2023-04-12T13:15:44;98287.19;;;14.13;35.38
79067;BME280;68470;50.224;14.348;2023-04-12T13:18:12;98285.13;;;13.60;34.49
79067;BME280;68470;50.224;14.348;2023-04-12T13:20:41;98276.78;;;13.51;35.74
79067;BME280;68470;50.224;14.348;2023-04-12T13:23:07;98288.94;;;13.64;36.28
79067;BME280;68470;50.224;14.348;2023-04-12T13:25:33;98274.78;;;13.66;36.95
79067;BME280;68470;50.224;14.348;2023-04-12T13:27:59;98268.84;;;13.59;36.67